sensor_id;sensor_type;location;lat;lon;timestamp;P1;durP1;ratioP1;P2;durP2;ratioP2
26538;SDS011;14205;43.200;24.170;2023-06-24T00:02:11;14.70;;;12.05;;
26538;SDS011;14205;43.200;24.170;2023-06-24T00:04:36;15.10;;;11.82;;
26538;SDS011;14205;43.200;24.170;2023-06-24T00:07:01;14.73;;;11.75;;
26538;SDS011;14205;43.200;24.170;2023-06-24T00:09:27;14.32;;;12.15;;
26538;SDS011;14205;43.200;24.170;2023-06-24T00:11:54;14.27;;;12.23;;
26538;SDS011;14205;43.200;24.170;2023-06-24T00:14:20;17.05;;;12.45;;
26538;SDS011;14205;43.200;24.170;2023-06-24T00:16:47;13.95;;;11.35;;
26538;SDS011;14205;43.200;24.170;2023-06-24T00:19:18;12.93;;;11.68;;
26538;SDS011;14205;43.200;24.170;2023-06-24T00:21:48;12.35;;;11.07;;
26538;SDS011;14205;43.200;24.170;2023-06-24T00:24:16;13.43;;;11.88;;
26538;SDS011;14205;43.200;24.170;2023-06-24T00:26:42;13.75;;;11.65;;
26538;SDS011;14205;43.200;24.170;2023-06-24T00:29:08;15.30;;;12.25;;
26538;SDS011;14205;43.200;24.170;2023-06-24T00:31:33;13.38;;;11.73;;
26538;SDS011;14205;43.200;24.170;2023-06-24T00:33:59;17.15;;;11.82;;
26538;SDS011;14205;43.200;24.170;2023-06-24T00:36:24;15.20;;;11.68;;
26538;SDS011;14205;43.200;24.170;2023-06-24T00:38:51;16.02;;;12.63;;
26538;SDS011;14205;43.200;24.170;2023-06-24T00:41:17;12.73;;;11.43;;
26538;SDS011;14205;43.200;24.170;2023-06-24T00:43:45;18.63;;;10.75;;
26538;SDS011;14205;43.200;24.170;2023-06-24T00:46:11;16.48;;;10.65;;
26538;SDS011;14205;43.200;24.170;2023-06-24T00:48:39;14.43;;;11.82;;
26538;SDS011;14205;43.200;24.170;2023-06-24T00:51:04;15.13;;;11.35;;
26538;SDS011;14205;43.200;24.170;2023-06-24T00:53:30;20.60;;;11.75;;
26538;SDS011;14205;43.200;24.170;2023-06-24T00:55:55;12.98;;;11.38;;
26538;SDS011;14205;43.200;24.170;2023-06-24T00:58:28;13.20;;;11.48;;
26538;SDS011;14205;43.200;24.170;2023-06-24T01:00:55;14.30;;;11.73;;
26538;SDS011;14205;43.200;24.170;2023-06-24T01:03:26;15.00;;;11.27;;
26538;SDS011;14205;43.200;24.170;2023-06-24T01:05:55;13.23;;;10.90;;
26538;SDS011;14205;43.200;24.170;2023-06-24T01:08:21;14.98;;;11.63;;
26538;SDS011;14205;43.200;24.170;2023-06-24T01:10:48;12.57;;;11.32;;
26538;SDS011;14205;43.200;24.170;2023-06-24T01:13:15;12.65;;;11.35;;
26538;SDS011;14205;43.200;24.170;2023-06-24T01:15:42;15.60;;;10.88;;
26538;SDS011;14205;43.200;24.170;2023-06-24T01:18:19;14.30;;;11.70;;
26538;SDS011;14205;43.200;24.170;2023-06-24T01:21:09;13.80;;;11.77;;
26538;SDS011;14205;43.200;24.170;2023-06-24T01:31:59;13.88;;;12.43;;
26538;SDS011;14205;43.200;24.170;2023-06-24T01:34:47;15.75;;;11.85;;
26538;SDS011;14205;43.200;24.170;2023-06-24T01:37:22;14.90;;;11.63;;
26538;SDS011;14205;43.200;24.170;2023-06-24T01:42:35;14.38;;;12.35;;
26538;SDS011;14205;43.200;24.170;2023-06-24T01:45:03;14.88;;;12.00;;
26538;SDS011;14205;43.200;24.170;2023-06-24T01:47:36;14.00;;;11.70;;
26538;SDS011;14205;43.200;24.170;2023-06-24T01:50:03;13.40;;;12.00;;
26538;SDS011;14205;43.200;24.170;2023-06-24T01:52:29;15.27;;;11.77;;
26538;SDS011;14205;43.200;24.170;2023-06-24T01:54:58;13.20;;;11.75;;
26538;SDS011;14205;43.200;24.170;2023-06-24T01:57:24;16.88;;;12.32;;
26538;SDS011;14205;43.200;24.170;2023-06-24T01:59:53;18.42;;;10.27;;
26538;SDS011;14205;43.200;24.170;2023-06-24T02:02:20;15.52;;;11.48;;
26538;SDS011;14205;43.200;24.170;2023-06-24T02:04:50;15.05;;;11.93;;
26538;SDS011;14205;43.200;24.170;2023-06-24T02:07:17;14.18;;;10.68;;
26538;SDS011;14205;43.200;24.170;2023-06-24T02:09:44;16.20;;;10.88;;
26538;SDS011;14205;43.200;24.170;2023-06-24T02:12:11;13.93;;;10.70;;
26538;SDS011;14205;43.200;24.170;2023-06-24T02:14:37;16.27;;;10.80;;
26538;SDS011;14205;43.200;24.170;2023-06-24T02:17:05;16.65;;;11.13;;
26538;SDS011;14205;43.200;24.170;2023-06-24T02:19:34;12.65;;;10.30;;
26538;SDS011;14205;43.200;24.170;2023-06-24T02:22:02;12.02;;;10.65;;
26538;SDS011;14205;43.200;24.170;2023-06-24T02:24:29;14.63;;;11.02;;
26538;SDS011;14205;43.200;24.170;2023-06-24T02:26:58;13.93;;;10.98;;
26538;SDS011;14205;43.200;24.170;2023-06-24T02:29:27;15.75;;;11.45;;
26538;SDS011;14205;43.200;24.170;2023-06-24T02:31:54;12.30;;;10.02;;
26538;SDS011;14205;43.200;24.170;2023-06-24T02:34:20;14.57;;;10.18;;
26538;SDS011;14205;43.200;24.170;2023-06-24T02:36:47;14.57;;;11.07;;
26538;SDS011;14205;43.200;24.170;2023-06-24T02:39:12;14.10;;;10.68;;
26538;SDS011;14205;43.200;24.170;2023-06-24T02:41:38;16.75;;;11.23;;
26538;SDS011;14205;43.200;24.170;2023-06-24T02:44:03;15.40;;;11.32;;
26538;SDS011;14205;43.200;24.170;2023-06-24T02:46:29;12.68;;;11.07;;
26538;SDS011;14205;43.200;24.170;2023-06-24T02:48:58;13.57;;;11.25;;
26538;SDS011;14205;43.200;24.170;2023-06-24T02:51:25;14.70;;;10.95;;
26538;SDS011;14205;43.200;24.170;2023-06-24T02:53:51;15.38;;;11.10;;
26538;SDS011;14205;43.200;24.170;2023-06-24T02:56:17;14.90;;;11.50;;
26538;SDS011;14205;43.200;24.170;2023-06-24T02:58:46;14.88;;;11.18;;
26538;SDS011;14205;43.200;24.170;2023-06-24T03:01:12;15.13;;;11.50;;
26538;SDS011;14205;43.200;24.170;2023-06-24T03:03:37;16.83;;;11.18;;
26538;SDS011;14205;43.200;24.170;2023-06-24T03:06:05;16.77;;;10.95;;
26538;SDS011;14205;43.200;24.170;2023-06-24T03:08:30;15.63;;;11.35;;
26538;SDS011;14205;43.200;24.170;2023-06-24T03:10:56;13.95;;;11.52;;
26538;SDS011;14205;43.200;24.170;2023-06-24T03:13:23;11.75;;;10.55;;
26538;SDS011;14205;43.200;24.170;2023-06-24T03:15:49;14.40;;;10.35;;
26538;SDS011;14205;43.200;24.170;2023-06-24T03:18:15;14.32;;;10.10;;
26538;SDS011;14205;43.200;24.170;2023-06-24T03:20:41;14.38;;;10.73;;
26538;SDS011;14205;43.200;24.170;2023-06-24T03:23:06;13.02;;;10.65;;
26538;SDS011;14205;43.200;24.170;2023-06-24T03:25:33;13.38;;;10.65;;
26538;SDS011;14205;43.200;24.170;2023-06-24T03:27:59;13.65;;;10.77;;
26538;SDS011;14205;43.200;24.170;2023-06-24T03:30:33;16.05;;;11.27;;
26538;SDS011;14205;43.200;24.170;2023-06-24T03:32:59;17.17;;;10.85;;
26538;SDS011;14205;43.200;24.170;2023-06-24T03:35:24;16.27;;;11.43;;
26538;SDS011;14205;43.200;24.170;2023-06-24T03:37:50;16.40;;;10.70;;
26538;SDS011;14205;43.200;24.170;2023-06-24T03:40:15;14.00;;;11.40;;
26538;SDS011;14205;43.200;24.170;2023-06-24T03:42:41;15.05;;;11.35;;
26538;SDS011;14205;43.200;24.170;2023-06-24T03:45:06;12.65;;;11.35;;
26538;SDS011;14205;43.200;24.170;2023-06-24T03:47:32;14.38;;;11.55;;
26538;SDS011;14205;43.200;24.170;2023-06-24T03:49:57;16.33;;;11.57;;
26538;SDS011;14205;43.200;24.170;2023-06-24T03:52:23;13.32;;;11.73;;
26538;SDS011;14205;43.200;24.170;2023-06-24T03:54:49;19.15;;;11.73;;
26538;SDS011;14205;43.200;24.170;2023-06-24T03:57:14;14.18;;;11.63;;
26538;SDS011;14205;43.200;24.170;2023-06-24T03:59:40;15.82;;;10.32;;
26538;SDS011;14205;43.200;24.170;2023-06-24T04:02:05;18.08;;;11.05;;
26538;SDS011;14205;43.200;24.170;2023-06-24T04:04:36;21.70;;;11.50;;
26538;SDS011;14205;43.200;24.170;2023-06-24T04:07:02;26.20;;;11.27;;
26538;SDS011;14205;43.200;24.170;2023-06-24T04:09:32;16.58;;;12.02;;
26538;SDS011;14205;43.200;24.170;2023-06-24T04:11:58;15.88;;;12.05;;
26538;SDS011;14205;43.200;24.170;2023-06-24T04:14:24;18.30;;;10.85;;
26538;SDS011;14205;43.200;24.170;2023-06-24T04:16:49;19.05;;;11.07;;
26538;SDS011;14205;43.200;24.170;2023-06-24T04:19:15;19.75;;;11.27;;
26538;SDS011;14205;43.200;24.170;2023-06-24T04:21:41;20.55;;;11.25;;
26538;SDS011;14205;43.200;24.170;2023-06-24T04:24:07;21.63;;;11.65;;
26538;SDS011;14205;43.200;24.170;2023-06-24T04:26:32;17.73;;;11.32;;
26538;SDS011;14205;43.200;24.170;2023-06-24T04:28:58;19.77;;;10.82;;
26538;SDS011;14205;43.200;24.170;2023-06-24T04:31:23;15.30;;;11.40;;
26538;SDS011;14205;43.200;24.170;2023-06-24T04:33:49;16.13;;;10.63;;
26538;SDS011;14205;43.200;24.170;2023-06-24T04:36:14;13.70;;;10.45;;
26538;SDS011;14205;43.200;24.170;2023-06-24T04:38:41;15.98;;;10.85;;
26538;SDS011;14205;43.200;24.170;2023-06-24T04:41:06;12.85;;;10.15;;
26538;SDS011;14205;43.200;24.170;2023-06-24T04:43:32;12.80;;;10.23;;
26538;SDS011;14205;43.200;24.170;2023-06-24T04:45:57;12.85;;;10.60;;
26538;SDS011;14205;43.200;24.170;2023-06-24T04:48:23;20.65;;;11.50;;
26538;SDS011;14205;43.200;24.170;2023-06-24T04:50:49;13.55;;;9.55;;
26538;SDS011;14205;43.200;24.170;2023-06-24T04:53:15;11.57;;;9.52;;
26538;SDS011;14205;43.200;24.170;2023-06-24T04:55:40;10.80;;;9.70;;
26538;SDS011;14205;43.200;24.170;2023-06-24T04:58:06;15.65;;;9.40;;
26538;SDS011;14205;43.200;24.170;2023-06-24T05:00:31;16.63;;;9.55;;
26538;SDS011;14205;43.200;24.170;2023-06-24T05:02:57;15.40;;;9.82;;
26538;SDS011;14205;43.200;24.170;2023-06-24T05:05:22;12.05;;;9.95;;
26538;SDS011;14205;43.200;24.170;2023-06-24T05:07:48;14.32;;;9.95;;
26538;SDS011;14205;43.200;24.170;2023-06-24T05:10:13;11.82;;;9.07;;
26538;SDS011;14205;43.200;24.170;2023-06-24T05:12:39;10.82;;;9.52;;
26538;SDS011;14205;43.200;24.170;2023-06-24T05:15:05;14.63;;;10.38;;
26538;SDS011;14205;43.200;24.170;2023-06-24T05:17:31;12.70;;;9.63;;
26538;SDS011;14205;43.200;24.170;2023-06-24T05:19:56;14.07;;;9.05;;
26538;SDS011;14205;43.200;24.170;2023-06-24T05:22:22;10.63;;;8.60;;
26538;SDS011;14205;43.200;24.170;2023-06-24T05:24:47;11.68;;;9.07;;
26538;SDS011;14205;43.200;24.170;2023-06-24T05:27:13;10.13;;;9.13;;
26538;SDS011;14205;43.200;24.170;2023-06-24T05:29:38;11.10;;;9.20;;
26538;SDS011;14205;43.200;24.170;2023-06-24T05:32:04;14.10;;;9.30;;
26538;SDS011;14205;43.200;24.170;2023-06-24T05:34:30;12.70;;;9.10;;
26538;SDS011;14205;43.200;24.170;2023-06-24T05:36:56;14.00;;;9.10;;
26538;SDS011;14205;43.200;24.170;2023-06-24T05:39:21;12.30;;;9.48;;
26538;SDS011;14205;43.200;24.170;2023-06-24T05:41:47;11.20;;;8.98;;
26538;SDS011;14205;43.200;24.170;2023-06-24T05:44:15;19.88;;;9.00;;
26538;SDS011;14205;43.200;24.170;2023-06-24T05:46:43;10.18;;;8.80;;
26538;SDS011;14205;43.200;24.170;2023-06-24T05:49:09;11.93;;;9.25;;
26538;SDS011;14205;43.200;24.170;2023-06-24T05:51:34;10.98;;;8.90;;
26538;SDS011;14205;43.200;24.170;2023-06-24T05:53:59;14.13;;;9.00;;
26538;SDS011;14205;43.200;24.170;2023-06-24T05:56:25;10.35;;;8.43;;
26538;SDS011;14205;43.200;24.170;2023-06-24T05:58:51;16.52;;;9.27;;
26538;SDS011;14205;43.200;24.170;2023-06-24T06:01:16;10.98;;;8.32;;
26538;SDS011;14205;43.200;24.170;2023-06-24T06:03:42;9.00;;;7.88;;
26538;SDS011;14205;43.200;24.170;2023-06-24T06:06:07;13.85;;;8.65;;
26538;SDS011;14205;43.200;24.170;2023-06-24T06:08:33;11.18;;;8.80;;
26538;SDS011;14205;43.200;24.170;2023-06-24T06:10:59;9.27;;;8.32;;
26538;SDS011;14205;43.200;24.170;2023-06-24T06:13:27;11.00;;;7.63;;
26538;SDS011;14205;43.200;24.170;2023-06-24T06:15:52;10.82;;;8.23;;
26538;SDS011;14205;43.200;24.170;2023-06-24T06:18:18;8.85;;;7.40;;
26538;SDS011;14205;43.200;24.170;2023-06-24T06:20:43;9.02;;;8.10;;
26538;SDS011;14205;43.200;24.170;2023-06-24T06:23:09;13.13;;;7.75;;
26538;SDS011;14205;43.200;24.170;2023-06-24T06:25:35;8.43;;;7.50;;
26538;SDS011;14205;43.200;24.170;2023-06-24T06:28:02;10.82;;;7.78;;
26538;SDS011;14205;43.200;24.170;2023-06-24T06:30:28;8.68;;;7.63;;
26538;SDS011;14205;43.200;24.170;2023-06-24T06:32:53;11.70;;;7.75;;
26538;SDS011;14205;43.200;24.170;2023-06-24T06:35:18;8.18;;;7.13;;
26538;SDS011;14205;43.200;24.170;2023-06-24T06:37:44;9.20;;;7.15;;
26538;SDS011;14205;43.200;24.170;2023-06-24T06:40:11;12.00;;;7.28;;
26538;SDS011;14205;43.200;24.170;2023-06-24T06:42:37;9.32;;;7.47;;
26538;SDS011;14205;43.200;24.170;2023-06-24T06:45:03;8.60;;;7.15;;
26538;SDS011;14205;43.200;24.170;2023-06-24T06:47:28;8.38;;;6.82;;
26538;SDS011;14205;43.200;24.170;2023-06-24T06:49:54;8.27;;;6.45;;
26538;SDS011;14205;43.200;24.170;2023-06-24T06:52:19;9.23;;;7.43;;
26538;SDS011;14205;43.200;24.170;2023-06-24T06:54:45;11.90;;;7.90;;
26538;SDS011;14205;43.200;24.170;2023-06-24T06:57:10;8.40;;;7.15;;
26538;SDS011;14205;43.200;24.170;2023-06-24T06:59:35;11.13;;;6.57;;
26538;SDS011;14205;43.200;24.170;2023-06-24T07:02:01;8.43;;;7.22;;
26538;SDS011;14205;43.200;24.170;2023-06-24T07:04:26;7.70;;;6.75;;
26538;SDS011;14205;43.200;24.170;2023-06-24T07:06:52;10.38;;;7.30;;
26538;SDS011;14205;43.200;24.170;2023-06-24T07:09:17;11.52;;;7.20;;
26538;SDS011;14205;43.200;24.170;2023-06-24T07:11:43;9.55;;;6.93;;
26538;SDS011;14205;43.200;24.170;2023-06-24T07:14:09;10.60;;;8.05;;
26538;SDS011;14205;43.200;24.170;2023-06-24T07:16:34;11.57;;;8.32;;
26538;SDS011;14205;43.200;24.170;2023-06-24T07:19:00;11.63;;;8.40;;
26538;SDS011;14205;43.200;24.170;2023-06-24T07:21:26;9.60;;;8.55;;
26538;SDS011;14205;43.200;24.170;2023-06-24T07:23:51;16.77;;;8.60;;
26538;SDS011;14205;43.200;24.170;2023-06-24T07:26:16;11.35;;;8.20;;
26538;SDS011;14205;43.200;24.170;2023-06-24T07:28:42;11.48;;;8.15;;
26538;SDS011;14205;43.200;24.170;2023-06-24T07:31:07;11.10;;;8.27;;
26538;SDS011;14205;43.200;24.170;2023-06-24T07:33:33;13.73;;;8.85;;
26538;SDS011;14205;43.200;24.170;2023-06-24T07:35:59;10.38;;;8.45;;
26538;SDS011;14205;43.200;24.170;2023-06-24T07:38:24;9.70;;;8.57;;
26538;SDS011;14205;43.200;24.170;2023-06-24T07:40:49;13.10;;;8.57;;
26538;SDS011;14205;43.200;24.170;2023-06-24T07:43:15;10.55;;;8.15;;
26538;SDS011;14205;43.200;24.170;2023-06-24T07:45:40;10.68;;;8.38;;
26538;SDS011;14205;43.200;24.170;2023-06-24T07:48:06;10.98;;;8.25;;
26538;SDS011;14205;43.200;24.170;2023-06-24T07:50:33;12.98;;;7.72;;
26538;SDS011;14205;43.200;24.170;2023-06-24T07:52:59;10.68;;;7.97;;
26538;SDS011;14205;43.200;24.170;2023-06-24T07:55:24;10.23;;;8.07;;
26538;SDS011;14205;43.200;24.170;2023-06-24T07:57:49;12.57;;;8.90;;
26538;SDS011;14205;43.200;24.170;2023-06-24T08:00:15;14.73;;;8.13;;
26538;SDS011;14205;43.200;24.170;2023-06-24T08:02:41;15.75;;;8.07;;
26538;SDS011;14205;43.200;24.170;2023-06-24T08:05:07;13.60;;;7.85;;
26538;SDS011;14205;43.200;24.170;2023-06-24T08:07:34;9.23;;;7.82;;
26538;SDS011;14205;43.200;24.170;2023-06-24T08:10:00;12.63;;;7.78;;
26538;SDS011;14205;43.200;24.170;2023-06-24T08:12:25;9.35;;;8.18;;
26538;SDS011;14205;43.200;24.170;2023-06-24T08:14:51;12.98;;;7.43;;
26538;SDS011;14205;43.200;24.170;2023-06-24T08:17:16;10.48;;;7.30;;
26538;SDS011;14205;43.200;24.170;2023-06-24T08:19:42;13.25;;;8.30;;
26538;SDS011;14205;43.200;24.170;2023-06-24T08:22:07;9.50;;;7.47;;
26538;SDS011;14205;43.200;24.170;2023-06-24T08:24:33;11.73;;;8.02;;
26538;SDS011;14205;43.200;24.170;2023-06-24T08:26:58;11.65;;;7.40;;
26538;SDS011;14205;43.200;24.170;2023-06-24T08:29:24;8.55;;;7.65;;
26538;SDS011;14205;43.200;24.170;2023-06-24T08:31:49;8.45;;;7.57;;
26538;SDS011;14205;43.200;24.170;2023-06-24T08:34:14;8.43;;;7.00;;
26538;SDS011;14205;43.200;24.170;2023-06-24T08:36:40;10.45;;;7.38;;
26538;SDS011;14205;43.200;24.170;2023-06-24T08:39:05;14.05;;;7.90;;
26538;SDS011;14205;43.200;24.170;2023-06-24T08:41:31;12.60;;;7.80;;
26538;SDS011;14205;43.200;24.170;2023-06-24T08:43:56;11.82;;;8.07;;
26538;SDS011;14205;43.200;24.170;2023-06-24T08:46:23;10.07;;;7.50;;
26538;SDS011;14205;43.200;24.170;2023-06-24T08:48:49;11.27;;;7.43;;
26538;SDS011;14205;43.200;24.170;2023-06-24T08:51:39;9.43;;;7.40;;
26538;SDS011;14205;43.200;24.170;2023-06-24T08:54:06;12.43;;;6.90;;
26538;SDS011;14205;43.200;24.170;2023-06-24T08:56:34;9.32;;;5.85;;
26538;SDS011;14205;43.200;24.170;2023-06-24T08:59:04;7.55;;;6.20;;
26538;SDS011;14205;43.200;24.170;2023-06-24T09:01:31;13.80;;;6.93;;
26538;SDS011;14205;43.200;24.170;2023-06-24T09:03:56;8.20;;;6.60;;
26538;SDS011;14205;43.200;24.170;2023-06-24T09:06:22;7.93;;;6.40;;
26538;SDS011;14205;43.200;24.170;2023-06-24T09:08:54;7.60;;;5.82;;
26538;SDS011;14205;43.200;24.170;2023-06-24T09:11:26;8.82;;;7.35;;
26538;SDS011;14205;43.200;24.170;2023-06-24T09:16:21;8.43;;;6.00;;
26538;SDS011;14205;43.200;24.170;2023-06-24T09:18:47;9.23;;;6.07;;
26538;SDS011;14205;43.200;24.170;2023-06-24T09:21:20;6.55;;;5.93;;
26538;SDS011;14205;43.200;24.170;2023-06-24T09:23:57;8.25;;;6.18;;
26538;SDS011;14205;43.200;24.170;2023-06-24T09:26:23;7.15;;;5.80;;
26538;SDS011;14205;43.200;24.170;2023-06-24T09:28:50;11.02;;;5.80;;
26538;SDS011;14205;43.200;24.170;2023-06-24T09:31:17;7.32;;;5.75;;
26538;SDS011;14205;43.200;24.170;2023-06-24T09:33:43;13.35;;;6.90;;
26538;SDS011;14205;43.200;24.170;2023-06-24T09:36:12;9.10;;;6.30;;
26538;SDS011;14205;43.200;24.170;2023-06-24T09:38:44;9.18;;;6.05;;
26538;SDS011;14205;43.200;24.170;2023-06-24T09:41:10;11.93;;;5.97;;
26538;SDS011;14205;43.200;24.170;2023-06-24T09:43:36;10.02;;;6.63;;
26538;SDS011;14205;43.200;24.170;2023-06-24T09:46:04;9.02;;;6.20;;
26538;SDS011;14205;43.200;24.170;2023-06-24T09:48:30;10.68;;;6.15;;
26538;SDS011;14205;43.200;24.170;2023-06-24T09:50:57;6.63;;;5.97;;
26538;SDS011;14205;43.200;24.170;2023-06-24T09:53:25;9.82;;;6.90;;
26538;SDS011;14205;43.200;24.170;2023-06-24T09:55:55;7.70;;;6.20;;
26538;SDS011;14205;43.200;24.170;2023-06-24T09:58:22;7.00;;;5.93;;
26538;SDS011;14205;43.200;24.170;2023-06-24T10:00:48;9.00;;;5.85;;
26538;SDS011;14205;43.200;24.170;2023-06-24T10:03:15;7.80;;;6.25;;
26538;SDS011;14205;43.200;24.170;2023-06-24T10:05:41;7.43;;;6.22;;
26538;SDS011;14205;43.200;24.170;2023-06-24T10:08:08;6.72;;;6.05;;
26538;SDS011;14205;43.200;24.170;2023-06-24T10:10:35;12.10;;;6.78;;
26538;SDS011;14205;43.200;24.170;2023-06-24T10:13:00;9.65;;;5.80;;
26538;SDS011;14205;43.200;24.170;2023-06-24T10:15:26;6.75;;;5.60;;
26538;SDS011;14205;43.200;24.170;2023-06-24T10:17:52;7.65;;;5.35;;
26538;SDS011;14205;43.200;24.170;2023-06-24T10:20:26;7.20;;;5.28;;
26538;SDS011;14205;43.200;24.170;2023-06-24T10:22:52;6.53;;;5.22;;
26538;SDS011;14205;43.200;24.170;2023-06-24T10:25:18;8.75;;;6.03;;
26538;SDS011;14205;43.200;24.170;2023-06-24T10:27:44;7.20;;;5.35;;
26538;SDS011;14205;43.200;24.170;2023-06-24T10:30:18;7.95;;;5.18;;
26538;SDS011;14205;43.200;24.170;2023-06-24T10:32:52;6.28;;;5.57;;
26538;SDS011;14205;43.200;24.170;2023-06-24T10:35:26;10.68;;;6.28;;
26538;SDS011;14205;43.200;24.170;2023-06-24T10:37:58;5.78;;;5.18;;
26538;SDS011;14205;43.200;24.170;2023-06-24T10:40:38;12.20;;;5.72;;
26538;SDS011;14205;43.200;24.170;2023-06-24T10:45:50;9.40;;;6.25;;
26538;SDS011;14205;43.200;24.170;2023-06-24T10:48:17;6.93;;;5.75;;
26538;SDS011;14205;43.200;24.170;2023-06-24T10:50:46;7.80;;;6.43;;
26538;SDS011;14205;43.200;24.170;2023-06-24T10:53:13;6.32;;;5.50;;
26538;SDS011;14205;43.200;24.170;2023-06-24T10:55:38;11.18;;;5.85;;
26538;SDS011;14205;43.200;24.170;2023-06-24T10:58:12;7.90;;;5.80;;
26538;SDS011;14205;43.200;24.170;2023-06-24T11:00:39;7.75;;;5.90;;
26538;SDS011;14205;43.200;24.170;2023-06-24T11:03:12;8.38;;;6.35;;
26538;SDS011;14205;43.200;24.170;2023-06-24T11:05:43;6.10;;;5.50;;
26538;SDS011;14205;43.200;24.170;2023-06-24T11:08:10;10.57;;;5.35;;
26538;SDS011;14205;43.200;24.170;2023-06-24T11:10:45;6.45;;;5.85;;
26538;SDS011;14205;43.200;24.170;2023-06-24T11:13:11;6.43;;;5.72;;
26538;SDS011;14205;43.200;24.170;2023-06-24T11:15:38;7.38;;;5.65;;
26538;SDS011;14205;43.200;24.170;2023-06-24T11:18:04;9.98;;;6.18;;
26538;SDS011;14205;43.200;24.170;2023-06-24T11:20:32;10.32;;;5.57;;
26538;SDS011;14205;43.200;24.170;2023-06-24T11:22:57;6.20;;;5.50;;
26538;SDS011;14205;43.200;24.170;2023-06-24T11:25:23;7.85;;;5.30;;
26538;SDS011;14205;43.200;24.170;2023-06-24T11:27:51;6.15;;;5.45;;
26538;SDS011;14205;43.200;24.170;2023-06-24T11:30:18;6.47;;;4.95;;
26538;SDS011;14205;43.200;24.170;2023-06-24T11:32:44;5.28;;;4.70;;
26538;SDS011;14205;43.200;24.170;2023-06-24T11:35:10;5.95;;;5.00;;
26538;SDS011;14205;43.200;24.170;2023-06-24T11:37:42;6.57;;;5.20;;
26538;SDS011;14205;43.200;24.170;2023-06-24T11:40:10;11.45;;;6.10;;
26538;SDS011;14205;43.200;24.170;2023-06-24T11:42:37;9.85;;;5.60;;
26538;SDS011;14205;43.200;24.170;2023-06-24T11:45:06;5.72;;;5.10;;
26538;SDS011;14205;43.200;24.170;2023-06-24T11:47:33;8.07;;;4.95;;
26538;SDS011;14205;43.200;24.170;2023-06-24T11:49:59;5.95;;;5.13;;
26538;SDS011;14205;43.200;24.170;2023-06-24T11:58:02;6.97;;;4.40;;
26538;SDS011;14205;43.200;24.170;2023-06-24T12:00:32;5.63;;;4.45;;
26538;SDS011;14205;43.200;24.170;2023-06-24T12:03:00;7.13;;;4.55;;
26538;SDS011;14205;43.200;24.170;2023-06-24T12:05:31;8.60;;;4.53;;
26538;SDS011;14205;43.200;24.170;2023-06-24T12:07:59;4.40;;;3.97;;
26538;SDS011;14205;43.200;24.170;2023-06-24T12:10:26;5.40;;;4.18;;
26538;SDS011;14205;43.200;24.170;2023-06-24T12:12:53;8.15;;;4.63;;
26538;SDS011;14205;43.200;24.170;2023-06-24T12:15:19;5.88;;;4.18;;
26538;SDS011;14205;43.200;24.170;2023-06-24T12:17:45;10.73;;;4.35;;
26538;SDS011;14205;43.200;24.170;2023-06-24T12:20:10;9.85;;;5.60;;
26538;SDS011;14205;43.200;24.170;2023-06-24T12:22:36;6.78;;;4.28;;
26538;SDS011;14205;43.200;24.170;2023-06-24T12:25:01;5.20;;;3.80;;
26538;SDS011;14205;43.200;24.170;2023-06-24T12:27:27;9.68;;;4.20;;
26538;SDS011;14205;43.200;24.170;2023-06-24T12:29:53;5.38;;;4.82;;
26538;SDS011;14205;43.200;24.170;2023-06-24T12:32:18;6.00;;;4.45;;
26538;SDS011;14205;43.200;24.170;2023-06-24T12:34:44;7.55;;;4.65;;
26538;SDS011;14205;43.200;24.170;2023-06-24T12:37:09;4.95;;;4.45;;
26538;SDS011;14205;43.200;24.170;2023-06-24T12:39:34;11.82;;;5.13;;
26538;SDS011;14205;43.200;24.170;2023-06-24T12:42:00;8.80;;;4.82;;
26538;SDS011;14205;43.200;24.170;2023-06-24T12:44:25;5.60;;;4.85;;
26538;SDS011;14205;43.200;24.170;2023-06-24T12:46:51;6.85;;;4.47;;
26538;SDS011;14205;43.200;24.170;2023-06-24T12:49:17;11.70;;;5.18;;
26538;SDS011;14205;43.200;24.170;2023-06-24T12:51:42;7.55;;;4.80;;
26538;SDS011;14205;43.200;24.170;2023-06-24T12:54:08;15.93;;;5.57;;
26538;SDS011;14205;43.200;24.170;2023-06-24T12:56:33;6.78;;;5.68;;
26538;SDS011;14205;43.200;24.170;2023-06-24T12:58:58;7.90;;;5.80;;
26538;SDS011;14205;43.200;24.170;2023-06-24T13:01:24;9.77;;;5.70;;
26538;SDS011;14205;43.200;24.170;2023-06-24T13:03:49;7.18;;;5.45;;
26538;SDS011;14205;43.200;24.170;2023-06-24T13:06:14;10.43;;;6.70;;
26538;SDS011;14205;43.200;24.170;2023-06-24T13:08:40;7.22;;;5.72;;
26538;SDS011;14205;43.200;24.170;2023-06-24T13:11:06;9.25;;;5.75;;
26538;SDS011;14205;43.200;24.170;2023-06-24T13:13:32;7.72;;;5.57;;
26538;SDS011;14205;43.200;24.170;2023-06-24T13:15:57;9.15;;;6.10;;
26538;SDS011;14205;43.200;24.170;2023-06-24T13:18:23;10.40;;;6.45;;
26538;SDS011;14205;43.200;24.170;2023-06-24T13:20:48;7.07;;;6.38;;
26538;SDS011;14205;43.200;24.170;2023-06-24T13:23:13;10.77;;;6.53;;
26538;SDS011;14205;43.200;24.170;2023-06-24T13:25:39;7.32;;;6.07;;
26538;SDS011;14205;43.200;24.170;2023-06-24T13:28:05;7.55;;;5.93;;
26538;SDS011;14205;43.200;24.170;2023-06-24T13:30:31;11.57;;;6.50;;
26538;SDS011;14205;43.200;24.170;2023-06-24T13:32:56;9.02;;;6.38;;
26538;SDS011;14205;43.200;24.170;2023-06-24T13:35:22;11.73;;;6.82;;
26538;SDS011;14205;43.200;24.170;2023-06-24T13:37:47;8.85;;;6.13;;
26538;SDS011;14205;43.200;24.170;2023-06-24T13:40:12;7.97;;;6.63;;
26538;SDS011;14205;43.200;24.170;2023-06-24T13:42:38;11.95;;;6.75;;
26538;SDS011;14205;43.200;24.170;2023-06-24T13:45:03;9.55;;;6.35;;
26538;SDS011;14205;43.200;24.170;2023-06-24T13:47:29;12.52;;;6.80;;
26538;SDS011;14205;43.200;24.170;2023-06-24T13:49:55;9.75;;;6.22;;
26538;SDS011;14205;43.200;24.170;2023-06-24T13:52:20;15.20;;;6.50;;
26538;SDS011;14205;43.200;24.170;2023-06-24T13:54:46;11.27;;;8.13;;
26538;SDS011;14205;43.200;24.170;2023-06-24T13:57:12;11.02;;;7.18;;
26538;SDS011;14205;43.200;24.170;2023-06-24T13:59:37;13.48;;;6.57;;
26538;SDS011;14205;43.200;24.170;2023-06-24T14:02:03;9.70;;;6.93;;
26538;SDS011;14205;43.200;24.170;2023-06-24T14:04:28;20.77;;;7.03;;
26538;SDS011;14205;43.200;24.170;2023-06-24T14:06:54;7.13;;;6.18;;
26538;SDS011;14205;43.200;24.170;2023-06-24T14:09:19;9.82;;;6.55;;
26538;SDS011;14205;43.200;24.170;2023-06-24T14:11:45;9.25;;;7.05;;
26538;SDS011;14205;43.200;24.170;2023-06-24T14:14:10;17.52;;;6.97;;
26538;SDS011;14205;43.200;24.170;2023-06-24T14:16:36;8.65;;;6.90;;
26538;SDS011;14205;43.200;24.170;2023-06-24T14:19:01;13.07;;;7.05;;
26538;SDS011;14205;43.200;24.170;2023-06-24T14:21:26;11.25;;;6.95;;
26538;SDS011;14205;43.200;24.170;2023-06-24T14:23:54;10.65;;;7.30;;
26538;SDS011;14205;43.200;24.170;2023-06-24T14:26:19;12.60;;;8.57;;
26538;SDS011;14205;43.200;24.170;2023-06-24T14:28:44;9.98;;;7.60;;
26538;SDS011;14205;43.200;24.170;2023-06-24T14:31:10;14.45;;;7.78;;
26538;SDS011;14205;43.200;24.170;2023-06-24T14:33:35;11.23;;;7.25;;
26538;SDS011;14205;43.200;24.170;2023-06-24T14:36:01;11.05;;;7.03;;
26538;SDS011;14205;43.200;24.170;2023-06-24T14:38:26;14.82;;;6.60;;
26538;SDS011;14205;43.200;24.170;2023-06-24T14:40:52;7.47;;;6.68;;